ADDS METAR Data INFO
IDs: Format: Raw Decoded Include TAF

Data at: 1807 UTC 18 Feb 2018

KPRB 181753Z AUTO 28003KT 10SM OVC006 08/07 A2999 RMK AO2 SLP158 T00830067 10083 20000 58002
KPRB 181740Z AUTO 10SM OVC005 08/07 A2999 RMK AO2 T00830067
KPRB 181653Z AUTO 20003KT 10SM OVC003 06/04 A3001 RMK AO2 SLP163 T00610044
KPRB 181553Z AUTO 00000KT 9SM OVC003 03/01 A3002 RMK AO2 SLP166 T00330006
KPRB 181453Z AUTO 00000KT 10SM OVC003 02/M04 A3000 RMK AO2 SLP159 T00221039 53001
KPRB 181420Z AUTO 16003KT 10SM BKN004 01/M04 A2999 RMK AO2 T00061044
KPRB 181416Z AUTO 00000KT 10SM SCT006 01/M04 A2999 RMK AO2 T00111044
KPRB 181353Z AUTO 32003KT 10SM CLR 01/M04 A3000 RMK AO2 SLP159 T00061044
KPRB 181253Z AUTO 00000KT 10SM CLR 01/M04 A2999 RMK AO2 SLP155 T00061044
KPRB 181153Z AUTO 00000KT 10SM CLR 02/M04 A2999 RMK AO2 SLP155 T00171039 10083 20006 58011
KPRB 181053Z AUTO 15004KT 10SM CLR 01/M04 A3001 RMK AO2 SLP159 T00111044
KPRB 180953Z AUTO 09003KT 10SM CLR 03/M04 A3002 RMK AO2 SLP164 T00281044
KPRB 180853Z AUTO 00000KT 10SM CLR 03/M04 A3003 RMK AO2 SLP167 T00331044 55006
KPRB 180753Z AUTO 00000KT 10SM CLR 06/M05 A3002 RMK AO2 SLP165 T00611050 402391022
KPRB 180653Z AUTO 12005KT 10SM CLR 06/M05 A3004 RMK AO2 SLP170 T00611050
KPRB 180553Z AUTO 00000KT 10SM CLR 07/M05 A3005 RMK AO2 SLP175 T00721050 10222 20072 53000
KPRB 180453Z AUTO 08004KT 10SM CLR 08/M04 A3005 RMK AO2 SLP175 T00831044
KPRB 180353Z AUTO 19006KT 10SM CLR 13/M05 A3004 RMK AO2 SLP173 T01281050
KPRB 180253Z AUTO 20006KT 10SM CLR 14/M04 A3005 RMK AO2 SLP176 T01441044 53003
KPRB 180153Z AUTO 19011KT 10SM CLR 17/M03 A3004 RMK AO2 SLP174 T01671033
KPRB 180053Z AUTO 20010KT 10SM CLR 20/M05 A3004 RMK AO2 SLP170 T02001050
KPRB 172353Z AUTO 20013KT 10SM CLR 22/M07 A3004 RMK AO2 SLP169 T02221072 10239 20106 56019
KPRB 172253Z AUTO 22009KT 10SM CLR 23/M05 A3004 RMK AO2 SLP170 T02331050
KPRB 172153Z AUTO 02003KT 10SM CLR 23/M06 A3006 RMK AO2 SLP178 T02281056
KPRB 172053Z AUTO 28003KT 10SM CLR 21/M03 A3010 RMK AO2 SLP189 T02061028 58027
KPRB 171953Z AUTO 00000KT 10SM CLR 18/M02 A3013 RMK AO2 SLP200 T01831022
KPRB 171853Z AUTO 30003KT 10SM CLR 14/M02 A3016 RMK AO2 SLP213 T01441017
KPRB 171753Z AUTO 00000KT 10SM CLR 10/M02 A3017 RMK AO2 SLP219 T01001017 10106 21022 50001
KPRB 171653Z AUTO 00000KT 10SM CLR 06/M02 A3018 RMK AO2 SLP222 T00611022
KPRB 171553Z AUTO 00000KT 10SM CLR 02/M03 A3018 RMK AO2 SLP222 T00221033
KPRB 171453Z AUTO 00000KT 10SM CLR 00/M04 A3017 RMK AO2 SLP218 T00001044 53002
KPRB 171353Z AUTO 00000KT 10SM CLR M01/M05 A3016 RMK AO2 SLP215 T10111050
KPRB 171253Z AUTO 00000KT 10SM CLR 02/M05 A3016 RMK AO2 SLP213 T00171050
KPRB 171153Z AUTO 05007KT 10SM CLR 01/M04 A3017 RMK AO2 SLP215 T00061044 10072 20006 56009
KPRB 171053Z AUTO 00000KT 10SM CLR 02/M04 A3017 RMK AO2 SLP216 T00171039
KPRB 170953Z AUTO 06003KT 10SM CLR 02/M04 A3018 RMK AO2 SLP220 T00171039
KPRB 170853Z AUTO 05003KT 10SM CLR 03/M04 A3019 RMK AO2 SLP224 T00281039 51005
KPRB 170753Z AUTO 03003KT 10SM CLR 05/M04 A3019 RMK AO2 SLP222 T00501039 402171022
KPRB 170653Z AUTO 06004KT 10SM CLR 07/M04 A3019 RMK AO2 SLP225 T00671039